sensor_id;sensor_type;location;lat;lon;timestamp;pressure;altitude;pressure_sealevel;temperature;humidity
23223;BME280;11780;13.904;100.620;2022-09-03T00:00:54;100778.13;;;29.51;85.65
23223;BME280;11780;13.904;100.620;2022-09-03T00:03:33;100777.19;;;29.55;85.71
23223;BME280;11780;13.904;100.620;2022-09-03T00:06:16;100779.94;;;29.55;85.62
23223;BME280;11780;13.904;100.620;2022-09-03T00:09:16;100787.38;;;29.55;85.47
23223;BME280;11780;13.904;100.620;2022-09-03T00:14:44;100792.44;;;29.61;85.07
23223;BME280;11780;13.904;100.620;2022-09-03T00:17:20;100799.59;;;29.62;85.08
23223;BME280;11780;13.904;100.620;2022-09-03T00:20:05;100807.63;;;29.73;84.83
23223;BME280;11780;13.904;100.620;2022-09-03T00:22:40;100807.75;;;29.68;84.83
23223;BME280;11780;13.904;100.620;2022-09-03T00:25:16;100818.94;;;29.71;84.58
23223;BME280;11780;13.904;100.620;2022-09-03T00:27:53;100817.00;;;29.72;84.64
23223;BME280;11780;13.904;100.620;2022-09-03T00:30:26;100813.75;;;29.70;84.66
23223;BME280;11780;13.904;100.620;2022-09-03T00:33:07;100813.75;;;29.70;84.71
23223;BME280;11780;13.904;100.620;2022-09-03T00:35:53;100816.38;;;29.75;84.58
23223;BME280;11780;13.904;100.620;2022-09-03T00:38:25;100820.47;;;29.77;84.38
23223;BME280;11780;13.904;100.620;2022-09-03T00:41:07;100832.78;;;29.80;84.23
23223;BME280;11780;13.904;100.620;2022-09-03T00:43:54;100833.13;;;29.78;84.28
23223;BME280;11780;13.904;100.620;2022-09-03T00:49:58;100836.38;;;29.81;84.22
23223;BME280;11780;13.904;100.620;2022-09-03T01:13:12;100855.53;;;29.86;83.66
23223;BME280;11780;13.904;100.620;2022-09-03T01:16:19;100865.94;;;29.89;83.71
23223;BME280;11780;13.904;100.620;2022-09-03T01:28:18;100865.63;;;29.90;83.83
23223;BME280;11780;13.904;100.620;2022-09-03T01:37:13;100866.53;;;30.00;83.50
23223;BME280;11780;13.904;100.620;2022-09-03T01:45:54;100876.84;;;30.17;83.07
23223;BME280;11780;13.904;100.620;2022-09-03T01:48:43;100882.25;;;30.22;82.75
23223;BME280;11780;13.904;100.620;2022-09-03T01:51:21;100877.72;;;30.26;82.62
23223;BME280;11780;13.904;100.620;2022-09-03T02:00:07;100877.56;;;30.31;82.52
23223;BME280;11780;13.904;100.620;2022-09-03T02:02:41;100876.78;;;30.31;82.82
23223;BME280;11780;13.904;100.620;2022-09-03T02:05:21;100876.81;;;30.40;82.65
23223;BME280;11780;13.904;100.620;2022-09-03T02:10:40;100879.41;;;30.36;82.73
23223;BME280;11780;13.904;100.620;2022-09-03T02:13:29;100875.94;;;30.30;82.39
23223;BME280;11780;13.904;100.620;2022-09-03T02:16:06;100880.53;;;30.35;82.83
23223;BME280;11780;13.904;100.620;2022-09-03T02:18:43;100886.53;;;30.37;82.48
23223;BME280;11780;13.904;100.620;2022-09-03T02:21:17;100881.00;;;30.37;83.04
23223;BME280;11780;13.904;100.620;2022-09-03T02:23:49;100885.41;;;30.38;82.80
23223;BME280;11780;13.904;100.620;2022-09-03T02:26:22;100888.88;;;30.44;82.91
23223;BME280;11780;13.904;100.620;2022-09-03T02:28:54;100895.34;;;30.48;82.35
23223;BME280;11780;13.904;100.620;2022-09-03T02:31:24;100891.16;;;30.50;82.56
23223;BME280;11780;13.904;100.620;2022-09-03T02:33:57;100898.69;;;30.59;82.69
23223;BME280;11780;13.904;100.620;2022-09-03T02:36:32;100895.22;;;30.53;82.16
23223;BME280;11780;13.904;100.620;2022-09-03T02:39:03;100896.03;;;30.53;82.76
23223;BME280;11780;13.904;100.620;2022-09-03T02:41:34;100896.03;;;30.53;82.40
23223;BME280;11780;13.904;100.620;2022-09-03T02:44:23;100891.88;;;30.56;82.35
23223;BME280;11780;13.904;100.620;2022-09-03T02:49:29;100896.09;;;30.62;81.95
23223;BME280;11780;13.904;100.620;2022-09-03T02:52:02;100899.22;;;30.70;82.13
23223;BME280;11780;13.904;100.620;2022-09-03T02:54:39;100896.13;;;30.71;80.82
23223;BME280;11780;13.904;100.620;2022-09-03T02:57:13;100891.13;;;30.73;81.50
23223;BME280;11780;13.904;100.620;2022-09-03T02:59:53;100891.63;;;30.75;81.46
23223;BME280;11780;13.904;100.620;2022-09-03T03:02:24;100892.41;;;30.76;81.17
23223;BME280;11780;13.904;100.620;2022-09-03T03:04:54;100888.34;;;30.73;81.12
23223;BME280;11780;13.904;100.620;2022-09-03T03:07:25;100884.16;;;30.84;81.19
23223;BME280;11780;13.904;100.620;2022-09-03T03:09:57;100881.44;;;30.93;79.79
23223;BME280;11780;13.904;100.620;2022-09-03T03:12:28;100891.06;;;31.05;79.70
23223;BME280;11780;13.904;100.620;2022-09-03T08:56:48;100462.47;;;30.85;73.55
23223;BME280;11780;13.904;100.620;2022-09-03T08:59:11;100467.63;;;30.95;73.55
23223;BME280;11780;13.904;100.620;2022-09-03T09:04:58;100484.63;;;31.15;73.21
23223;BME280;11780;13.904;100.620;2022-09-03T09:07:47;100491.78;;;31.16;72.40
23223;BME280;11780;13.904;100.620;2022-09-03T09:11:07;100493.69;;;31.24;72.69
23223;BME280;11780;13.904;100.620;2022-09-03T09:13:53;100499.22;;;31.24;72.85
23223;BME280;11780;13.904;100.620;2022-09-03T09:16:30;100501.97;;;31.24;72.78
23223;BME280;11780;13.904;100.620;2022-09-03T09:22:46;100500.84;;;31.25;73.68
23223;BME280;11780;13.904;100.620;2022-09-03T09:25:21;100505.88;;;31.23;74.49
23223;BME280;11780;13.904;100.620;2022-09-03T09:28:06;100511.41;;;31.23;74.63
23223;BME280;11780;13.904;100.620;2022-09-03T09:30:44;100500.69;;;31.22;74.41
23223;BME280;11780;13.904;100.620;2022-09-03T09:33:17;100503.81;;;31.20;74.06
23223;BME280;11780;13.904;100.620;2022-09-03T09:35:49;100500.06;;;31.16;74.76
23223;BME280;11780;13.904;100.620;2022-09-03T09:38:31;100496.16;;;31.17;74.89
23223;BME280;11780;13.904;100.620;2022-09-03T09:41:16;100500.88;;;31.17;74.96
23223;BME280;11780;13.904;100.620;2022-09-03T09:44:00;100495.34;;;31.17;75.13
23223;BME280;11780;13.904;100.620;2022-09-03T09:46:37;100499.59;;;31.14;74.97
23223;BME280;11780;13.904;100.620;2022-09-03T09:49:28;100495.19;;;31.13;75.18
23223;BME280;11780;13.904;100.620;2022-09-03T09:52:08;100492.44;;;31.13;74.70
23223;BME280;11780;13.904;100.620;2022-09-03T09:54:42;100484.47;;;31.11;74.95
23223;BME280;11780;13.904;100.620;2022-09-03T09:57:17;100482.84;;;31.10;75.39
23223;BME280;11780;13.904;100.620;2022-09-03T10:00:11;100482.84;;;31.10;75.27
23223;BME280;11780;13.904;100.620;2022-09-03T10:02:52;100502.19;;;31.10;75.42
23223;BME280;11780;13.904;100.620;2022-09-03T10:05:26;100500.88;;;31.08;75.46
23223;BME280;11780;13.904;100.620;2022-09-03T10:08:02;100517.00;;;31.06;75.75
23223;BME280;11780;13.904;100.620;2022-09-03T10:10:41;100524.59;;;31.09;75.89
23223;BME280;11780;13.904;100.620;2022-09-03T10:13:18;100516.31;;;31.09;75.72
23223;BME280;11780;13.904;100.620;2022-09-03T10:26:46;100510.63;;;31.05;76.04
23223;BME280;11780;13.904;100.620;2022-09-03T10:29:21;100516.66;;;31.07;75.96
23223;BME280;11780;13.904;100.620;2022-09-03T10:32:24;100519.75;;;31.06;75.48
23223;BME280;11780;13.904;100.620;2022-09-03T10:38:32;100516.50;;;31.04;75.11
23223;BME280;11780;13.904;100.620;2022-09-03T10:41:21;100517.31;;;31.04;74.98
23223;BME280;11780;13.904;100.620;2022-09-03T10:47:09;100563.78;;;31.02;74.86
23223;BME280;11780;13.904;100.620;2022-09-03T10:53:04;100609.94;;;31.02;74.23
23223;BME280;11780;13.904;100.620;2022-09-03T10:56:06;100619.66;;;30.99;74.68
23223;BME280;11780;13.904;100.620;2022-09-03T11:01:58;100640.97;;;30.98;74.59
23223;BME280;11780;13.904;100.620;2022-09-03T11:04:56;100643.25;;;30.96;74.17
23223;BME280;11780;13.904;100.620;2022-09-03T11:07:45;100651.53;;;30.96;73.82
23223;BME280;11780;13.904;100.620;2022-09-03T11:10:56;100654.63;;;30.95;73.43
23223;BME280;11780;13.904;100.620;2022-09-03T11:16:27;100661.59;;;30.92;71.74
23223;BME280;11780;13.904;100.620;2022-09-03T11:19:06;100649.41;;;30.93;71.75
23223;BME280;11780;13.904;100.620;2022-09-03T11:21:38;100647.63;;;30.89;71.72
23223;BME280;11780;13.904;100.620;2022-09-03T11:24:19;100650.41;;;30.89;71.15
23223;BME280;11780;13.904;100.620;2022-09-03T11:26:56;100647.00;;;30.83;68.50
23223;BME280;11780;13.904;100.620;2022-09-03T11:29:50;100638.72;;;30.83;69.59
23223;BME280;11780;13.904;100.620;2022-09-03T11:32:26;100631.41;;;30.78;69.70
23223;BME280;11780;13.904;100.620;2022-09-03T11:35:01;100621.16;;;30.70;67.55
23223;BME280;11780;13.904;100.620;2022-09-03T11:41:13;100625.75;;;30.75;68.06
23223;BME280;11780;13.904;100.620;2022-09-03T11:43:44;100617.13;;;30.67;68.27
23223;BME280;11780;13.904;100.620;2022-09-03T11:49:10;100616.97;;;30.64;67.34
23223;BME280;11780;13.904;100.620;2022-09-03T11:51:41;100624.41;;;30.63;66.77
23223;BME280;11780;13.904;100.620;2022-09-03T11:57:10;100638.72;;;30.65;67.60
23223;BME280;11780;13.904;100.620;2022-09-03T11:59:43;100639.34;;;30.62;68.22
23223;BME280;11780;13.904;100.620;2022-09-03T12:02:34;100637.09;;;30.64;67.98
23223;BME280;11780;13.904;100.620;2022-09-03T12:11:05;100638.88;;;30.69;68.13
23223;BME280;11780;13.904;100.620;2022-09-03T12:14:45;100639.69;;;30.70;69.09
23223;BME280;11780;13.904;100.620;2022-09-03T12:16:57;100637.44;;;30.72;68.82
23223;BME280;11780;13.904;100.620;2022-09-03T12:19:36;100638.06;;;30.68;68.32
23223;BME280;11780;13.904;100.620;2022-09-03T12:22:13;100644.09;;;30.71;67.63
23223;BME280;11780;13.904;100.620;2022-09-03T12:24:45;100648.63;;;30.66;67.60
23223;BME280;11780;13.904;100.620;2022-09-03T12:27:19;100647.81;;;30.66;67.79
23223;BME280;11780;13.904;100.620;2022-09-03T12:29:57;100648.97;;;30.65;67.79
23223;BME280;11780;13.904;100.620;2022-09-03T12:32:31;100655.91;;;30.62;68.06
23223;BME280;11780;13.904;100.620;2022-09-03T12:35:15;100665.34;;;30.61;67.93
23223;BME280;11780;13.904;100.620;2022-09-03T12:38:06;100671.03;;;30.65;69.07
23223;BME280;11780;13.904;100.620;2022-09-03T12:40:43;100669.09;;;30.65;70.29
23223;BME280;11780;13.904;100.620;2022-09-03T12:43:33;100660.63;;;30.62;70.32
23223;BME280;11780;13.904;100.620;2022-09-03T12:46:13;100667.78;;;30.63;69.33
23223;BME280;11780;13.904;100.620;2022-09-03T12:48:54;100681.09;;;30.61;69.20
23223;BME280;11780;13.904;100.620;2022-09-03T12:51:45;100671.53;;;30.58;69.25
23223;BME280;11780;13.904;100.620;2022-09-03T12:54:22;100677.84;;;30.67;70.00
23223;BME280;11780;13.904;100.620;2022-09-03T12:56:57;100672.00;;;30.60;70.01
23223;BME280;11780;13.904;100.620;2022-09-03T12:59:32;100687.91;;;30.63;70.32
23223;BME280;11780;13.904;100.620;2022-09-03T13:02:17;100687.72;;;30.51;69.71
23223;BME280;11780;13.904;100.620;2022-09-03T13:04:50;100698.41;;;30.52;69.50
23223;BME280;11780;13.904;100.620;2022-09-03T13:07:43;100711.41;;;30.52;70.13
23223;BME280;11780;13.904;100.620;2022-09-03T13:10:28;100718.72;;;30.48;68.83
23223;BME280;11780;13.904;100.620;2022-09-03T13:13:02;100719.03;;;30.46;69.31
23223;BME280;11780;13.904;100.620;2022-09-03T13:15:37;100725.53;;;30.42;68.85
23223;BME280;11780;13.904;100.620;2022-09-03T13:18:18;100722.94;;;30.45;69.24
23223;BME280;11780;13.904;100.620;2022-09-03T13:21:08;100731.22;;;30.45;69.64
23223;BME280;11780;13.904;100.620;2022-09-03T13:24:00;100730.75;;;30.52;69.63
23223;BME280;11780;13.904;100.620;2022-09-03T13:29:47;100736.09;;;30.48;69.90
23223;BME280;11780;13.904;100.620;2022-09-03T13:38:34;100729.97;;;30.60;69.57
23223;BME280;11780;13.904;100.620;2022-09-03T13:41:15;100737.78;;;30.58;69.51
23223;BME280;11780;13.904;100.620;2022-09-03T13:58:15;100747.03;;;30.71;71.02
23223;BME280;11780;13.904;100.620;2022-09-03T14:03:45;100760.53;;;30.73;71.26
23223;BME280;11780;13.904;100.620;2022-09-03T14:06:42;100768.97;;;30.76;70.84
23223;BME280;11780;13.904;100.620;2022-09-03T14:17:55;100778.25;;;30.80;71.86
23223;BME280;11780;13.904;100.620;2022-09-03T14:20:55;100777.59;;;30.83;71.65
23223;BME280;11780;13.904;100.620;2022-09-03T14:26:36;100785.72;;;30.89;72.25
23223;BME280;11780;13.904;100.620;2022-09-03T14:29:15;100793.72;;;30.90;72.47
23223;BME280;11780;13.904;100.620;2022-09-03T14:51:53;100823.75;;;30.92;74.84
23223;BME280;11780;13.904;100.620;2022-09-03T14:55:01;100831.22;;;30.91;74.44
23223;BME280;11780;13.904;100.620;2022-09-03T15:01:06;100833.66;;;30.93;74.64
23223;BME280;11780;13.904;100.620;2022-09-03T15:03:43;100840.81;;;30.94;74.59
23223;BME280;11780;13.904;100.620;2022-09-03T15:12:07;100853.81;;;30.93;74.73
23223;BME280;11780;13.904;100.620;2022-09-03T15:15:17;100852.19;;;30.92;75.26
23223;BME280;11780;13.904;100.620;2022-09-03T15:18:16;100859.34;;;30.93;75.09
23223;BME280;11780;13.904;100.620;2022-09-03T15:24:06;100852.38;;;30.96;75.20
23223;BME280;11780;13.904;100.620;2022-09-03T15:27:28;100857.91;;;30.96;75.20
23223;BME280;11780;13.904;100.620;2022-09-03T15:41:04;100852.38;;;30.96;76.09
23223;BME280;11780;13.904;100.620;2022-09-03T15:43:37;100844.72;;;30.93;76.30
23223;BME280;11780;13.904;100.620;2022-09-03T15:46:13;100835.31;;;30.94;76.19
23223;BME280;11780;13.904;100.620;2022-09-03T15:54:51;100837.56;;;30.92;76.33
23223;BME280;11780;13.904;100.620;2022-09-03T15:57:34;100848.28;;;30.93;76.33
23223;BME280;11780;13.904;100.620;2022-09-03T16:00:17;100843.09;;;30.92;76.36
23223;BME280;11780;13.904;100.620;2022-09-03T16:03:06;100843.44;;;30.90;76.41
23223;BME280;11780;13.904;100.620;2022-09-03T16:05:43;100842.25;;;30.91;76.55
23223;BME280;11780;13.904;100.620;2022-09-03T16:08:39;100844.22;;;30.91;76.43
23223;BME280;11780;13.904;100.620;2022-09-03T16:14:28;100844.88;;;30.88;76.30
23223;BME280;11780;13.904;100.620;2022-09-03T16:22:44;100850.72;;;30.86;76.94
23223;BME280;11780;13.904;100.620;2022-09-03T16:25:20;100844.38;;;30.86;77.29
23223;BME280;11780;13.904;100.620;2022-09-03T16:27:59;100849.59;;;30.87;77.25
23223;BME280;11780;13.904;100.620;2022-09-03T16:36:30;100846.00;;;30.87;77.25
23223;BME280;11780;13.904;100.620;2022-09-03T16:39:23;100843.22;;;30.87;77.40
23223;BME280;11780;13.904;100.620;2022-09-03T16:42:17;100835.78;;;30.87;77.28
23223;BME280;11780;13.904;100.620;2022-09-03T16:47:32;100839.16;;;30.84;77.27
23223;BME280;11780;13.904;100.620;2022-09-03T16:50:20;100846.81;;;30.87;77.13
23223;BME280;11780;13.904;100.620;2022-09-03T16:56:09;100839.81;;;30.81;77.69
23223;BME280;11780;13.904;100.620;2022-09-03T17:10:20;100849.41;;;30.83;77.77
23223;BME280;11780;13.904;100.620;2022-09-03T17:15:56;100842.91;;;30.79;77.88
23223;BME280;11780;13.904;100.620;2022-09-03T17:23:56;100833.78;;;30.79;78.02
23223;BME280;11780;13.904;100.620;2022-09-03T17:32:14;100827.78;;;30.77;78.49
23223;BME280;11780;13.904;100.620;2022-09-03T17:38:11;100826.81;;;30.73;78.46
23223;BME280;11780;13.904;100.620;2022-09-03T17:44:29;100823.22;;;30.72;78.68
23223;BME280;11780;13.904;100.620;2022-09-03T17:49:55;100815.41;;;30.65;79.57
23223;BME280;11780;13.904;100.620;2022-09-03T17:55:35;100822.88;;;30.65;79.77
23223;BME280;11780;13.904;100.620;2022-09-03T18:01:12;100819.28;;;30.64;80.19
23223;BME280;11780;13.904;100.620;2022-09-03T18:09:37;100821.56;;;30.62;79.91
23223;BME280;11780;13.904;100.620;2022-09-03T18:12:36;100821.25;;;30.64;80.34
23223;BME280;11780;13.904;100.620;2022-09-03T18:17:57;100823.19;;;30.63;80.42
23223;BME280;11780;13.904;100.620;2022-09-03T18:20:37;100818.63;;;30.59;80.32
23223;BME280;11780;13.904;100.620;2022-09-03T18:26:55;100810.34;;;30.59;80.50
23223;BME280;11780;13.904;100.620;2022-09-03T18:30:00;100802.41;;;30.57;80.33
23223;BME280;11780;13.904;100.620;2022-09-03T18:32:51;100808.41;;;30.59;80.30
23223;BME280;11780;13.904;100.620;2022-09-03T18:35:43;100805.16;;;30.57;80.41
23223;BME280;11780;13.904;100.620;2022-09-03T18:38:34;100804.66;;;30.55;80.37
23223;BME280;11780;13.904;100.620;2022-09-03T18:41:51;100808.22;;;30.56;80.66
23223;BME280;11780;13.904;100.620;2022-09-03T18:44:59;100813.75;;;30.56;80.40
23223;BME280;11780;13.904;100.620;2022-09-03T18:51:26;100803.63;;;30.51;80.94
23223;BME280;11780;13.904;100.620;2022-09-03T18:54:26;100803.63;;;30.51;80.62
23223;BME280;11780;13.904;100.620;2022-09-03T19:01:16;100794.56;;;30.50;80.65
23223;BME280;11780;13.904;100.620;2022-09-03T19:11:11;100779.13;;;30.49;80.76
23223;BME280;11780;13.904;100.620;2022-09-03T19:14:25;100774.75;;;30.48;81.11
23223;BME280;11780;13.904;100.620;2022-09-03T19:17:32;100798.75;;;30.48;81.01
23223;BME280;11780;13.904;100.620;2022-09-03T19:20:33;100799.38;;;30.45;81.24
23223;BME280;11780;13.904;100.620;2022-09-03T19:23:24;100803.78;;;30.46;81.09
23223;BME280;11780;13.904;100.620;2022-09-03T19:30:07;100788.84;;;30.47;80.71
23223;BME280;11780;13.904;100.620;2022-09-03T19:33:12;100798.25;;;30.46;81.14
23223;BME280;11780;13.904;100.620;2022-09-03T19:51:50;100784.63;;;30.41;81.33
23223;BME280;11780;13.904;100.620;2022-09-03T19:54:41;100779.41;;;30.39;81.12
23223;BME280;11780;13.904;100.620;2022-09-03T19:57:30;100765.94;;;30.37;81.08
23223;BME280;11780;13.904;100.620;2022-09-03T20:00:22;100766.28;;;30.36;81.34
23223;BME280;11780;13.904;100.620;2022-09-03T20:03:12;100762.69;;;30.35;80.89
23223;BME280;11780;13.904;100.620;2022-09-03T20:06:04;100756.34;;;30.35;81.04
23223;BME280;11780;13.904;100.620;2022-09-03T20:09:02;100758.28;;;30.34;81.20
23223;BME280;11780;13.904;100.620;2022-09-03T20:11:57;100744.81;;;30.33;81.27
23223;BME280;11780;13.904;100.620;2022-09-03T20:14:36;100742.56;;;30.35;81.11
23223;BME280;11780;13.904;100.620;2022-09-03T20:17:10;100740.59;;;30.35;81.35
23223;BME280;11780;13.904;100.620;2022-09-03T20:28:21;100745.94;;;30.32;81.23
23223;BME280;11780;13.904;100.620;2022-09-03T20:37:14;100757.00;;;30.32;81.24
23223;BME280;11780;13.904;100.620;2022-09-03T20:40:06;100754.22;;;30.32;81.36
23223;BME280;11780;13.904;100.620;2022-09-03T20:48:56;100736.50;;;30.24;81.73
23223;BME280;11780;13.904;100.620;2022-09-03T20:51:45;100751.31;;;30.28;81.26
23223;BME280;11780;13.904;100.620;2022-09-03T20:55:11;100767.19;;;30.31;81.11
23223;BME280;11780;13.904;100.620;2022-09-03T21:00:08;100778.28;;;30.40;80.71
23223;BME280;11780;13.904;100.620;2022-09-03T21:13:30;100807.66;;;30.36;78.01
23223;BME280;11780;13.904;100.620;2022-09-03T21:19:10;100817.88;;;30.35;76.76
23223;BME280;11780;13.904;100.620;2022-09-03T21:21:58;100833.63;;;30.35;76.76
23223;BME280;11780;13.904;100.620;2022-09-03T21:24:38;100841.72;;;30.31;76.82
23223;BME280;11780;13.904;100.620;2022-09-03T21:27:14;100849.00;;;30.27;76.52
23223;BME280;11780;13.904;100.620;2022-09-03T21:29:57;100846.25;;;30.27;77.02
23223;BME280;11780;13.904;100.620;2022-09-03T21:32:37;100850.44;;;30.25;76.16
23223;BME280;11780;13.904;100.620;2022-09-03T21:35:29;100846.38;;;30.22;75.79
23223;BME280;11780;13.904;100.620;2022-09-03T21:38:09;100834.34;;;30.18;75.02
23223;BME280;11780;13.904;100.620;2022-09-03T21:40:51;100839.84;;;30.18;75.32
23223;BME280;11780;13.904;100.620;2022-09-03T21:43:43;100839.84;;;30.18;74.64
23223;BME280;11780;13.904;100.620;2022-09-03T21:46:22;100849.25;;;30.17;74.69
23223;BME280;11780;13.904;100.620;2022-09-03T21:48:57;100863.06;;;30.17;74.43
23223;BME280;11780;13.904;100.620;2022-09-03T21:51:50;100864.84;;;30.13;74.39
23223;BME280;11780;13.904;100.620;2022-09-03T23:27:12;100821.97;;;29.10;76.41
23223;BME280;11780;13.904;100.620;2022-09-03T23:29:53;100821.91;;;29.01;76.43
23223;BME280;11780;13.904;100.620;2022-09-03T23:32:24;100816.50;;;28.96;76.70
23223;BME280;11780;13.904;100.620;2022-09-03T23:35:06;100818.66;;;28.85;77.03
23223;BME280;11780;13.904;100.620;2022-09-03T23:40:27;100825.41;;;28.79;76.88
23223;BME280;11780;13.904;100.620;2022-09-03T23:45:43;100830.81;;;28.84;76.53
23223;BME280;11780;13.904;100.620;2022-09-03T23:54:33;100845.56;;;29.02;76.15
